sensor_id;sensor_type;location;lat;lon;timestamp;P1;P2;P0
45112;PMS5003;30873;53.908;27.576;2023-04-03T00:01:39;3;2.9;1.4
45112;PMS5003;30873;53.908;27.576;2023-04-03T00:06:15;3.1;2.2;1.1
45112;PMS5003;30873;53.908;27.576;2023-04-03T00:11:02;2.4;2.1;0.9
45112;PMS5003;30873;53.908;27.576;2023-04-03T00:16:29;3;2.3;1
45112;PMS5003;30873;53.908;27.576;2023-04-03T00:21:15;2.7;2.3;1.2
45112;PMS5003;30873;53.908;27.576;2023-04-03T00:26:39;3.2;2.5;1.2
45112;PMS5003;30873;53.908;27.576;2023-04-03T00:31:15;3.6;2.7;1.1
45112;PMS5003;30873;53.908;27.576;2023-04-03T00:36:04;2.3;1.9;0.9
45112;PMS5003;30873;53.908;27.576;2023-04-03T00:41:29;2.6;2.2;1.1
45112;PMS5003;30873;53.908;27.576;2023-04-03T00:46:15;3.1;2.5;1.2
45112;PMS5003;30873;53.908;27.576;2023-04-03T00:51:41;2.3;2.2;1
45112;PMS5003;30873;53.908;27.576;2023-04-03T00:55:51;2.2;1.4;1
45112;PMS5003;30873;53.908;27.576;2023-04-03T01:00:53;2.7;2.1;1
45112;PMS5003;30873;53.908;27.576;2023-04-03T01:06:30;2.2;2.1;1.4
45112;PMS5003;30873;53.908;27.576;2023-04-03T01:11:23;3.7;2.1;1.1
45112;PMS5003;30873;53.908;27.576;2023-04-03T01:16:39;3;2.7;1.2
45112;PMS5003;30873;53.908;27.576;2023-04-03T01:22:20;3.7;2.6;1.3
45112;PMS5003;30873;53.908;27.576;2023-04-03T01:26:01;3.5;2.6;1.4
45112;PMS5003;30873;53.908;27.576;2023-04-03T01:31:38;3.9;3.4;1.5
45112;PMS5003;30873;53.908;27.576;2023-04-03T01:36:17;3.5;2.9;1.3
45112;PMS5003;30873;53.908;27.576;2023-04-03T01:41:41;3.1;2.6;1.2
45112;PMS5003;30873;53.908;27.576;2023-04-03T01:45:51;4.2;3.9;1.5
45112;PMS5003;30873;53.908;27.576;2023-04-03T01:51:02;3.1;2.3;1.1
45112;PMS5003;30873;53.908;27.576;2023-04-03T01:56:29;3.4;2.6;1.2
45112;PMS5003;30873;53.908;27.576;2023-04-03T02:01:01;3.4;2.7;1.4
45112;PMS5003;30873;53.908;27.576;2023-04-03T02:06:39;4.3;3.4;1.5
45112;PMS5003;30873;53.908;27.576;2023-04-03T02:11:15;3.1;2;0.9
45112;PMS5003;30873;53.908;27.576;2023-04-03T02:16:05;3;2.5;1.2
45112;PMS5003;30873;53.908;27.576;2023-04-03T02:21:29;1.8;1.8;0.9
45112;PMS5003;30873;53.908;27.576;2023-04-03T02:26:16;2.1;1.7;1.1
45112;PMS5003;30873;53.908;27.576;2023-04-03T02:31:29;1.9;1.2;0.9
45112;PMS5003;30873;53.908;27.576;2023-04-03T02:36:06;2.1;1.6;0.9
45112;PMS5003;30873;53.908;27.576;2023-04-03T02:40:51;2;1.7;0.8
45112;PMS5003;30873;53.908;27.576;2023-04-03T02:46:43;2;1.4;0.6
45112;PMS5003;30873;53.908;27.576;2023-04-03T02:50:51;1.4;1.3;0.8
45112;PMS5003;30873;53.908;27.576;2023-04-03T02:56:17;1.7;1.5;0.9
45112;PMS5003;30873;53.908;27.576;2023-04-03T03:01:23;2.5;2.2;1.2
45112;PMS5003;30873;53.908;27.576;2023-04-03T03:06:00;2.8;2.2;1.1
45112;PMS5003;30873;53.908;27.576;2023-04-03T03:11:29;3.1;1.9;0.8
45112;PMS5003;30873;53.908;27.576;2023-04-03T03:16:15;2.8;2.2;1.1
45112;PMS5003;30873;53.908;27.576;2023-04-03T03:21:39;2.5;1.8;1.1
45112;PMS5003;30873;53.908;27.576;2023-04-03T03:26:25;2.1;1.8;1
45112;PMS5003;30873;53.908;27.576;2023-04-03T03:31:02;3.1;1.8;0.9
45112;PMS5003;30873;53.908;27.576;2023-04-03T03:36:39;2.3;2.1;0.9
45112;PMS5003;30873;53.908;27.576;2023-04-03T03:40:52;3.2;2.2;1.1
45112;PMS5003;30873;53.908;27.576;2023-04-03T03:46:21;2.4;1.9;0.9
45112;PMS5003;30873;53.908;27.576;2023-04-03T03:51:15;2.9;2.4;1.1
45112;PMS5003;30873;53.908;27.576;2023-04-03T03:55:59;3.4;2.7;1.4
45112;PMS5003;30873;53.908;27.576;2023-04-03T04:01:39;2.8;2.3;0.8
45112;PMS5003;30873;53.908;27.576;2023-04-03T04:06:24;2.9;2.1;1
45112;PMS5003;30873;53.908;27.576;2023-04-03T04:11:11;2.7;2.7;1.1
45112;PMS5003;30873;53.908;27.576;2023-04-03T04:16:15;3.1;2.2;1.1
45112;PMS5003;30873;53.908;27.576;2023-04-03T04:21:09;2.9;2.3;1.2
45112;PMS5003;30873;53.908;27.576;2023-04-03T04:26:37;4;3.6;1.8
45112;PMS5003;30873;53.908;27.576;2023-04-03T04:30:59;5;3.1;2.1
45112;PMS5003;30873;53.908;27.576;2023-04-03T04:36:23;3.1;2.8;1.3
45112;PMS5003;30873;53.908;27.576;2023-04-03T04:40:51;3.5;2.4;1.2
45112;PMS5003;30873;53.908;27.576;2023-04-03T04:46:23;3.5;2.7;1.3
45112;PMS5003;30873;53.908;27.576;2023-04-03T04:51:41;3.9;3.9;2.7
45112;PMS5003;30873;53.908;27.576;2023-04-03T04:56:09;4.8;4;2.3
45112;PMS5003;30873;53.908;27.576;2023-04-03T05:01:23;3.1;2.8;1.4
45112;PMS5003;30873;53.908;27.576;2023-04-03T05:05:51;4.2;3.4;1.7
45112;PMS5003;30873;53.908;27.576;2023-04-03T05:10:51;5.1;3.9;2.1
45112;PMS5003;30873;53.908;27.576;2023-04-03T05:16:39;5;3.7;2.4
45112;PMS5003;30873;53.908;27.576;2023-04-03T05:20:59;6.1;5.4;2.9
45112;PMS5003;30873;53.908;27.576;2023-04-03T05:26:26;4.1;3.5;1.7
45112;PMS5003;30873;53.908;27.576;2023-04-03T05:31:16;4.7;3.6;2.3
45112;PMS5003;30873;53.908;27.576;2023-04-03T05:35:52;5.1;3.8;2.4
45112;PMS5003;30873;53.908;27.576;2023-04-03T05:41:41;3.4;2.7;1.3
45112;PMS5003;30873;53.908;27.576;2023-04-03T05:45:59;4.4;3.1;1.4
45112;PMS5003;30873;53.908;27.576;2023-04-03T05:51:28;4.6;4.2;2.6
45112;PMS5003;30873;53.908;27.576;2023-04-03T05:56:02;4.7;3.8;1.6
45112;PMS5003;30873;53.908;27.576;2023-04-03T06:00:51;6.2;4.7;2.6
45112;PMS5003;30873;53.908;27.576;2023-04-03T06:06:44;4;2.9;1.7
45112;PMS5003;30873;53.908;27.576;2023-04-03T06:10:51;4.2;3.6;2
45112;PMS5003;30873;53.908;27.576;2023-04-03T06:16:08;3.7;3.5;1.8
45112;PMS5003;30873;53.908;27.576;2023-04-03T06:21:05;4.6;3.3;1.8
45112;PMS5003;30873;53.908;27.576;2023-04-03T06:25:52;3.3;2.5;1.5
45112;PMS5003;30873;53.908;27.576;2023-04-03T06:31:39;4.5;3.6;2.3
45112;PMS5003;30873;53.908;27.576;2023-04-03T06:35:55;3.1;2.6;1.2
45112;PMS5003;30873;53.908;27.576;2023-04-03T06:41:21;4.3;2.6;1.5
45112;PMS5003;30873;53.908;27.576;2023-04-03T06:46:16;4.7;2.9;1.6
45112;PMS5003;30873;53.908;27.576;2023-04-03T06:51:00;3.7;3.1;1.7
45112;PMS5003;30873;53.908;27.576;2023-04-03T06:56:37;4.3;4;2.2
45112;PMS5003;30873;53.908;27.576;2023-04-03T07:00:59;4.1;3.2;1.3
45112;PMS5003;30873;53.908;27.576;2023-04-03T07:06:26;6.5;5.5;3.2
45112;PMS5003;30873;53.908;27.576;2023-04-03T07:11:06;2.7;2.4;1.2
45112;PMS5003;30873;53.908;27.576;2023-04-03T07:15:52;3.2;2.7;1
45112;PMS5003;30873;53.908;27.576;2023-04-03T07:21:40;4.3;3.1;1.3
45112;PMS5003;30873;53.908;27.576;2023-04-03T07:26:10;4.2;4.1;2.1
45112;PMS5003;30873;53.908;27.576;2023-04-03T07:31:22;3.8;3;1.3
45112;PMS5003;30873;53.908;27.576;2023-04-03T07:35:52;4.6;3.1;1.5
45112;PMS5003;30873;53.908;27.576;2023-04-03T07:40:52;3.9;2.5;1.2
45112;PMS5003;30873;53.908;27.576;2023-04-03T07:46:40;4.3;3.8;2.2
45112;PMS5003;30873;53.908;27.576;2023-04-03T07:51:24;4.1;3.4;1.5
45112;PMS5003;30873;53.908;27.576;2023-04-03T07:56:02;4.6;3.6;2.1
45112;PMS5003;30873;53.908;27.576;2023-04-03T08:01:14;2.1;2.1;1.1
45112;PMS5003;30873;53.908;27.576;2023-04-03T08:06:38;4.2;2.9;1.3
45112;PMS5003;30873;53.908;27.576;2023-04-03T08:11:16;1.9;1.6;0.8
45112;PMS5003;30873;53.908;27.576;2023-04-03T08:15:52;2.4;1.8;1.1
45112;PMS5003;30873;53.908;27.576;2023-04-03T08:21:40;4.2;3;1.2
45112;PMS5003;30873;53.908;27.576;2023-04-03T08:26:24;3.5;2.6;1.6
45112;PMS5003;30873;53.908;27.576;2023-04-03T08:31:40;7.1;6.5;5.1
45112;PMS5003;30873;53.908;27.576;2023-04-03T08:36:40;2.6;2.2;1.4
45112;PMS5003;30873;53.908;27.576;2023-04-03T08:40:59;4.4;2.5;1.4
45112;PMS5003;30873;53.908;27.576;2023-04-03T08:46:42;3.4;2.7;1.2
45112;PMS5003;30873;53.908;27.576;2023-04-03T08:51:22;3.5;2.7;1.5
45112;PMS5003;30873;53.908;27.576;2023-04-03T08:56:10;3.3;2.3;0.5
45112;PMS5003;30873;53.908;27.576;2023-04-03T09:00:54;5.6;4.5;2.2
45112;PMS5003;30873;53.908;27.576;2023-04-03T09:05:53;5.2;4.3;2.4
45112;PMS5003;30873;53.908;27.576;2023-04-03T09:11:43;3.6;3.5;2.4
45112;PMS5003;30873;53.908;27.576;2023-04-03T09:16:27;3.6;2.8;1.7
45112;PMS5003;30873;53.908;27.576;2023-04-03T09:21:40;2.7;2.6;1.4
45112;PMS5003;30873;53.908;27.576;2023-04-03T09:26:02;3.5;2.8;1.7
45112;PMS5003;30873;53.908;27.576;2023-04-03T09:31:02;3.8;3.6;1.8
45112;PMS5003;30873;53.908;27.576;2023-04-03T09:36:40;2.4;2.3;1.2
45112;PMS5003;30873;53.908;27.576;2023-04-03T09:41:24;3.4;2.9;1.3
45112;PMS5003;30873;53.908;27.576;2023-04-03T09:46:40;4;3.7;2.5
45112;PMS5003;30873;53.908;27.576;2023-04-03T09:51:16;5;4.9;2.9
45112;PMS5003;30873;53.908;27.576;2023-04-03T09:56:34;7.1;6.7;5.2
45112;PMS5003;30873;53.908;27.576;2023-04-03T10:01:41;7.8;6.4;3.4
45112;PMS5003;30873;53.908;27.576;2023-04-03T10:06:24;5.9;5.3;2.9
45112;PMS5003;30873;53.908;27.576;2023-04-03T10:11:47;4.2;3.4;1.6
45112;PMS5003;30873;53.908;27.576;2023-04-03T10:16:07;3.9;3.7;1.9
45112;PMS5003;30873;53.908;27.576;2023-04-03T10:21:06;6.2;5.6;3.4
45112;PMS5003;30873;53.908;27.576;2023-04-03T10:26:45;5;4.2;2.4
45112;PMS5003;30873;53.908;27.576;2023-04-03T10:31:27;5.9;5.2;3.4
45112;PMS5003;30873;53.908;27.576;2023-04-03T10:36:42;5;4.5;2.5
45112;PMS5003;30873;53.908;27.576;2023-04-03T10:41:15;4;3;1.8
45112;PMS5003;30873;53.908;27.576;2023-04-03T10:45:53;4.7;4.3;2.7
45112;PMS5003;30873;53.908;27.576;2023-04-03T10:51:29;5.8;5.3;3.2
45112;PMS5003;30873;53.908;27.576;2023-04-03T10:56:29;6.4;5.8;4.1
45112;PMS5003;30873;53.908;27.576;2023-04-03T11:01:42;5.8;4.2;3
45112;PMS5003;30873;53.908;27.576;2023-04-03T11:06:16;2.4;2.4;1.2
45112;PMS5003;30873;53.908;27.576;2023-04-03T11:11:29;5.8;4.2;2.6
45112;PMS5003;30873;53.908;27.576;2023-04-03T11:16:45;5.5;4.5;2.8
45112;PMS5003;30873;53.908;27.576;2023-04-03T11:21:27;2.8;2.5;1.4
45112;PMS5003;30873;53.908;27.576;2023-04-03T11:26:42;5.6;4.8;3.2
45112;PMS5003;30873;53.908;27.576;2023-04-03T11:31:22;9.4;8.4;5.4
45112;PMS5003;30873;53.908;27.576;2023-04-03T11:36:03;3.3;3.1;1.8
45112;PMS5003;30873;53.908;27.576;2023-04-03T11:41:42;4.2;3.2;1.7
45112;PMS5003;30873;53.908;27.576;2023-04-03T11:46:58;4.5;3.8;1.9
45112;PMS5003;30873;53.908;27.576;2023-04-03T11:51:42;4.6;4.1;2
45112;PMS5003;30873;53.908;27.576;2023-04-03T11:55:54;3.9;3.6;1.8
45112;PMS5003;30873;53.908;27.576;2023-04-03T12:01:42;4.5;3.8;1.7
45112;PMS5003;30873;53.908;27.576;2023-04-03T12:06:54;4.8;4.7;2.2
45112;PMS5003;30873;53.908;27.576;2023-04-03T12:11:28;6.2;4.9;2.1
45112;PMS5003;30873;53.908;27.576;2023-04-03T12:16:44;4.7;3.5;1.6
45112;PMS5003;30873;53.908;27.576;2023-04-03T12:21:16;6.7;6.3;4.1
45112;PMS5003;30873;53.908;27.576;2023-04-03T12:26:30;6.6;6.1;3.5
45112;PMS5003;30873;53.908;27.576;2023-04-03T12:31:18;3.9;3.9;1.9
45112;PMS5003;30873;53.908;27.576;2023-04-03T12:36:26;5;4.3;2.2
45112;PMS5003;30873;53.908;27.576;2023-04-03T12:41:44;3.8;2.9;1.5
45112;PMS5003;30873;53.908;27.576;2023-04-03T12:46:17;4;3.6;1.9
45112;PMS5003;30873;53.908;27.576;2023-04-03T12:51:02;4.4;3.9;1.9
45112;PMS5003;30873;53.908;27.576;2023-04-03T12:56:19;4.6;4.1;2
45112;PMS5003;30873;53.908;27.576;2023-04-03T13:01:26;6;4.3;2.4
45112;PMS5003;30873;53.908;27.576;2023-04-03T13:06:42;5.9;3.8;2.3
45112;PMS5003;30873;53.908;27.576;2023-04-03T13:11:16;6.5;6.1;4.2
45112;PMS5003;30873;53.908;27.576;2023-04-03T13:16:00;4.6;3.8;1.8
45112;PMS5003;30873;53.908;27.576;2023-04-03T13:21:06;4.7;4.1;2.2
45112;PMS5003;30873;53.908;27.576;2023-04-03T13:26:26;5.8;4.7;2.5
45112;PMS5003;30873;53.908;27.576;2023-04-03T13:31:40;6.1;4.7;3.4
45112;PMS5003;30873;53.908;27.576;2023-04-03T13:36:16;4.3;4.2;2.2
45112;PMS5003;30873;53.908;27.576;2023-04-03T13:40:52;4.3;3.8;2.2
45112;PMS5003;30873;53.908;27.576;2023-04-03T13:45:54;4.9;4.4;2.1
45112;PMS5003;30873;53.908;27.576;2023-04-03T13:51:28;5.2;4.5;2.4
45112;PMS5003;30873;53.908;27.576;2023-04-03T13:56:44;5.3;4.5;2.5
45112;PMS5003;30873;53.908;27.576;2023-04-03T14:01:17;4.4;3.8;1.8
45112;PMS5003;30873;53.908;27.576;2023-04-03T14:06:06;3.5;2.8;1.5
45112;PMS5003;30873;53.908;27.576;2023-04-03T14:11:16;3.9;3.5;1.8
45112;PMS5003;30873;53.908;27.576;2023-04-03T14:16:14;6.2;4.7;3.2
45112;PMS5003;30873;53.908;27.576;2023-04-03T14:21:44;6;5.5;3.5
45112;PMS5003;30873;53.908;27.576;2023-04-03T14:26:17;7;5.5;2.9
45112;PMS5003;30873;53.908;27.576;2023-04-03T14:30:52;5.5;4.8;2.8
45112;PMS5003;30873;53.908;27.576;2023-04-03T14:36:10;5.8;4.1;2.3
45112;PMS5003;30873;53.908;27.576;2023-04-03T14:41:28;4.2;3.1;1.5
45112;PMS5003;30873;53.908;27.576;2023-04-03T14:46:44;3.2;2.5;1.5
45112;PMS5003;30873;53.908;27.576;2023-04-03T14:51:02;4.4;3.2;1.8
45112;PMS5003;30873;53.908;27.576;2023-04-03T14:56:46;5.8;5.2;3
45112;PMS5003;30873;53.908;27.576;2023-04-03T15:01:06;4.1;3.7;2.1
45112;PMS5003;30873;53.908;27.576;2023-04-03T15:06:44;3.6;2.8;1.2
45112;PMS5003;30873;53.908;27.576;2023-04-03T15:11:16;2.6;2.2;1.3
45112;PMS5003;30873;53.908;27.576;2023-04-03T15:16:30;7.2;6.4;3.8
45112;PMS5003;30873;53.908;27.576;2023-04-03T15:21:02;3.9;2.7;1.5
45112;PMS5003;30873;53.908;27.576;2023-04-03T15:26:18;3.1;2.5;1.5
45112;PMS5003;30873;53.908;27.576;2023-04-03T15:31:02;4.2;3.8;1.9
45112;PMS5003;30873;53.908;27.576;2023-04-03T15:36:26;5.3;3.5;1.9
45112;PMS5003;30873;53.908;27.576;2023-04-03T15:41:47;4.5;3.9;1.8
45112;PMS5003;30873;53.908;27.576;2023-04-03T15:46:15;4.8;3.8;1.9
45112;PMS5003;30873;53.908;27.576;2023-04-03T15:51:26;4.7;3.7;1.6
45112;PMS5003;30873;53.908;27.576;2023-04-03T15:56:06;4.9;3.1;1.9
45112;PMS5003;30873;53.908;27.576;2023-04-03T16:01:28;5;4.3;2.4
45112;PMS5003;30873;53.908;27.576;2023-04-03T16:06:44;4.8;4.1;1.9
45112;PMS5003;30873;53.908;27.576;2023-04-03T16:11:12;4.3;3.9;2.3
45112;PMS5003;30873;53.908;27.576;2023-04-03T16:16:28;5.5;4.5;2.5
45112;PMS5003;30873;53.908;27.576;2023-04-03T16:21:16;3.3;2.9;1.2
45112;PMS5003;30873;53.908;27.576;2023-04-03T16:26:20;4.7;4.2;1.9
45112;PMS5003;30873;53.908;27.576;2023-04-03T16:31:46;3;2.2;1.1
45112;PMS5003;30873;53.908;27.576;2023-04-03T16:36:28;2;1.6;1
45112;PMS5003;30873;53.908;27.576;2023-04-03T16:41:30;4.7;2.5;1.2
45112;PMS5003;30873;53.908;27.576;2023-04-03T16:46:16;4;3.4;1.4
45112;PMS5003;30873;53.908;27.576;2023-04-03T16:51:30;3.8;3.4;1.9
45112;PMS5003;30873;53.908;27.576;2023-04-03T16:56:46;3.3;3.3;1.5
45112;PMS5003;30873;53.908;27.576;2023-04-03T17:01:11;3.6;3.3;1.4
45112;PMS5003;30873;53.908;27.576;2023-04-03T17:06:30;3.1;3;1.8
45112;PMS5003;30873;53.908;27.576;2023-04-03T17:10:52;5.6;5.4;3.6
45112;PMS5003;30873;53.908;27.576;2023-04-03T17:16:30;8.2;7.3;4.9
45112;PMS5003;30873;53.908;27.576;2023-04-03T17:21:19;5;4.5;3
45112;PMS5003;30873;53.908;27.576;2023-04-03T17:26:02;5.2;4.6;3
45112;PMS5003;30873;53.908;27.576;2023-04-03T17:31:46;11;9.9;8.7
45112;PMS5003;30873;53.908;27.576;2023-04-03T17:36:16;14.9;13.9;12.1
45112;PMS5003;30873;53.908;27.576;2023-04-03T17:41:30;17.2;17.1;15.2
45112;PMS5003;30873;53.908;27.576;2023-04-03T17:46:44;13.8;13.2;11.4
45112;PMS5003;30873;53.908;27.576;2023-04-03T17:51:15;11.9;11.3;10.3
45112;PMS5003;30873;53.908;27.576;2023-04-03T17:56:46;10;9.3;7.4
45112;PMS5003;30873;53.908;27.576;2023-04-03T18:01:10;5.2;4.5;3.1
45112;PMS5003;30873;53.908;27.576;2023-04-03T18:06:30;4.4;3.7;2.4
45112;PMS5003;30873;53.908;27.576;2023-04-03T18:11:44;3;2.7;1.4
45112;PMS5003;30873;53.908;27.576;2023-04-03T18:16:12;5.5;4.1;1.8
45112;PMS5003;30873;53.908;27.576;2023-04-03T18:21:44;4.3;3.7;2
45112;PMS5003;30873;53.908;27.576;2023-04-03T18:25:52;4;3.6;1.8
45112;PMS5003;30873;53.908;27.576;2023-04-03T18:30:52;7.3;7;5.9
45112;PMS5003;30873;53.908;27.576;2023-04-03T18:36:44;5.4;4.8;4
45112;PMS5003;30873;53.908;27.576;2023-04-03T18:41:14;4.2;3.7;1.6
45112;PMS5003;30873;53.908;27.576;2023-04-03T18:46:46;3.9;2.9;1.3
45112;PMS5003;30873;53.908;27.576;2023-04-03T18:50:53;2.7;2;1
45112;PMS5003;30873;53.908;27.576;2023-04-03T18:56:30;3.5;2.1;1
45112;PMS5003;30873;53.908;27.576;2023-04-03T19:01:34;4.2;2.8;1.4
45112;PMS5003;30873;53.908;27.576;2023-04-03T19:05:52;2.1;1.6;1
45112;PMS5003;30873;53.908;27.576;2023-04-03T19:11:46;2.9;2.3;1
45112;PMS5003;30873;53.908;27.576;2023-04-03T19:15:52;2.5;2.5;1.2
45112;PMS5003;30873;53.908;27.576;2023-04-03T19:21:30;2.7;2.3;1.2
45112;PMS5003;30873;53.908;27.576;2023-04-03T19:26:46;3.1;2.2;1.2
45112;PMS5003;30873;53.908;27.576;2023-04-03T19:31:02;3.4;3.3;1.6
45112;PMS5003;30873;53.908;27.576;2023-04-03T19:36:46;3.1;2.7;1.3
45112;PMS5003;30873;53.908;27.576;2023-04-03T19:41:17;3.2;2.3;1.1
45112;PMS5003;30873;53.908;27.576;2023-04-03T19:46:30;3.1;2.5;1.4
45112;PMS5003;30873;53.908;27.576;2023-04-03T19:51:44;2;1.7;0.9
45112;PMS5003;30873;53.908;27.576;2023-04-03T19:55:52;3.3;2.7;1.3
45112;PMS5003;30873;53.908;27.576;2023-04-03T20:00:54;4.3;2.7;1.1
45112;PMS5003;30873;53.908;27.576;2023-04-03T20:06:02;3.8;2.9;1.2
45112;PMS5003;30873;53.908;27.576;2023-04-03T20:11:30;3.1;2.1;1.3
45112;PMS5003;30873;53.908;27.576;2023-04-03T20:16:46;3.3;2.6;1.2
45112;PMS5003;30873;53.908;27.576;2023-04-03T20:21:46;3.5;2.5;1.4
45112;PMS5003;30873;53.908;27.576;2023-04-03T20:26:46;2.4;1.7;0.8
45112;PMS5003;30873;53.908;27.576;2023-04-03T20:31:02;2.4;1.9;0.8
45112;PMS5003;30873;53.908;27.576;2023-04-03T20:36:30;4.2;3.4;1.9
45112;PMS5003;30873;53.908;27.576;2023-04-03T20:41:46;2.4;2.4;1.2
45112;PMS5003;30873;53.908;27.576;2023-04-03T20:46:14;1.7;1.7;1
45112;PMS5003;30873;53.908;27.576;2023-04-03T20:51:46;3.6;2;1.1
45112;PMS5003;30873;53.908;27.576;2023-04-03T20:56:16;3.3;2.2;1.1
45112;PMS5003;30873;53.908;27.576;2023-04-03T21:01:30;2.6;2.1;1.2
45112;PMS5003;30873;53.908;27.576;2023-04-03T21:20:52;2.6;2.3;1.1
45112;PMS5003;30873;53.908;27.576;2023-04-03T21:26:30;2.6;2.2;1
45112;PMS5003;30873;53.908;27.576;2023-04-03T21:30:52;3.3;2.8;1.2
45112;PMS5003;30873;53.908;27.576;2023-04-03T21:36:31;4.5;2.6;1.2
45112;PMS5003;30873;53.908;27.576;2023-04-03T21:41:47;3.5;2.4;1.3
45112;PMS5003;30873;53.908;27.576;2023-04-03T21:46:16;3.3;1.9;1.1
45112;PMS5003;30873;53.908;27.576;2023-04-03T21:51:30;3;2.5;1.1
45112;PMS5003;30873;53.908;27.576;2023-04-03T21:56:06;3;2.4;1.3
45112;PMS5003;30873;53.908;27.576;2023-04-03T22:01:14;3.9;2.5;1.2
45112;PMS5003;30873;53.908;27.576;2023-04-03T22:06:46;3.2;2.2;1
45112;PMS5003;30873;53.908;27.576;2023-04-03T22:11:03;2.5;2;0.9
45112;PMS5003;30873;53.908;27.576;2023-04-03T22:16:28;3;2.6;1
45112;PMS5003;30873;53.908;27.576;2023-04-03T22:21:30;3.8;2.4;1.1
45112;PMS5003;30873;53.908;27.576;2023-04-03T22:26:14;3.7;3.1;1.4
45112;PMS5003;30873;53.908;27.576;2023-04-03T22:31:46;3.5;2.5;1.2
45112;PMS5003;30873;53.908;27.576;2023-04-03T22:36:02;2.5;2.1;1.1
45112;PMS5003;30873;53.908;27.576;2023-04-03T22:41:28;3.5;2;1.2
45112;PMS5003;30873;53.908;27.576;2023-04-03T22:46:02;3;2.6;1.2
45112;PMS5003;30873;53.908;27.576;2023-04-03T22:50:52;3.8;3.3;1.2
45112;PMS5003;30873;53.908;27.576;2023-04-03T22:56:46;3.8;2.6;1.1
45112;PMS5003;30873;53.908;27.576;2023-04-03T23:01:16;4.2;3.3;1.5
45112;PMS5003;30873;53.908;27.576;2023-04-03T23:06:28;3.6;2.1;1.2
45112;PMS5003;30873;53.908;27.576;2023-04-03T23:11:02;4.1;3.3;1.4
45112;PMS5003;30873;53.908;27.576;2023-04-03T23:16:04;3.3;2.8;1.2
45112;PMS5003;30873;53.908;27.576;2023-04-03T23:21:44;3.7;1.9;0.9
45112;PMS5003;30873;53.908;27.576;2023-04-03T23:26:42;3.2;2.5;1.2
45112;PMS5003;30873;53.908;27.576;2023-04-03T23:31:26;3.2;2.4;1.1
45112;PMS5003;30873;53.908;27.576;2023-04-03T23:35:52;2.8;2.6;1.2
45112;PMS5003;30873;53.908;27.576;2023-04-03T23:41:26;3.5;2.9;1.1
45112;PMS5003;30873;53.908;27.576;2023-04-03T23:46:40;3.4;2.8;1.4
45112;PMS5003;30873;53.908;27.576;2023-04-03T23:50:52;3.4;3.2;1.3
45112;PMS5003;30873;53.908;27.576;2023-04-03T23:56:24;4.5;3.3;1.6
